createdAt,value
2018-10-06T00:00:59.597Z,934.82
2018-10-06T00:01:59.718Z,934.83
2018-10-06T00:02:59.611Z,934.85
2018-10-06T00:03:59.635Z,934.86
2018-10-06T00:04:59.631Z,934.83
2018-10-06T00:05:59.664Z,934.87
2018-10-06T00:06:59.758Z,934.83
2018-10-06T00:07:59.676Z,934.79
2018-10-06T00:08:59.692Z,934.85
2018-10-06T00:09:59.749Z,934.88
2018-10-06T00:10:59.712Z,934.82
2018-10-06T00:11:59.830Z,934.90
2018-10-06T00:12:59.717Z,934.87
2018-10-06T00:13:59.865Z,934.88
2018-10-06T00:14:59.759Z,934.92
2018-10-06T00:15:59.769Z,934.87
2018-10-06T00:16:59.939Z,934.85
2018-10-06T00:17:59.785Z,934.81
2018-10-06T00:18:59.814Z,934.78
2018-10-06T00:19:59.813Z,934.73
2018-10-06T00:20:59.817Z,934.65
2018-10-06T00:21:59.996Z,934.77
2018-10-06T00:22:59.884Z,934.75
2018-10-06T00:23:59.853Z,934.78
2018-10-06T00:24:59.859Z,934.73
2018-10-06T00:26:00.003Z,934.75
2018-10-06T00:27:00.037Z,934.76
2018-10-06T00:27:59.906Z,934.69
2018-10-06T00:28:59.910Z,934.75
2018-10-06T00:29:59.913Z,934.73
2018-10-06T00:30:59.922Z,934.74
2018-10-06T00:32:00.007Z,934.68
2018-10-06T00:32:59.958Z,934.69
2018-10-06T00:34:00.063Z,934.64
2018-10-06T00:35:00.108Z,934.62
2018-10-06T00:36:00.002Z,934.63
2018-10-06T00:36:59.994Z,934.68
2018-10-06T00:38:00.027Z,934.64
2018-10-06T00:39:00.119Z,934.65
2018-10-06T00:40:00.044Z,934.64
2018-10-06T00:41:00.060Z,934.66
2018-10-06T00:42:00.067Z,934.69
2018-10-06T00:43:00.075Z,934.66
2018-10-06T00:44:00.192Z,934.63
2018-10-06T00:45:00.146Z,934.64
2018-10-06T00:46:00.108Z,934.63
2018-10-06T00:47:00.123Z,934.63
2018-10-06T00:48:00.128Z,934.62
2018-10-06T00:49:00.247Z,934.60
2018-10-06T00:50:00.162Z,934.57
2018-10-06T00:51:00.167Z,934.64
2018-10-06T00:52:00.300Z,934.60
2018-10-06T00:53:00.184Z,934.54
2018-10-06T00:54:00.254Z,934.57
2018-10-06T00:55:00.214Z,934.58
2018-10-06T00:56:00.371Z,934.58
2018-10-06T00:57:00.227Z,934.50
2018-10-06T00:58:00.240Z,934.50
2018-10-06T00:59:02.455Z,934.46
2018-10-06T01:00:00.270Z,934.48
2018-10-06T01:01:00.332Z,934.45
2018-10-06T01:02:00.458Z,934.41
2018-10-06T01:03:00.309Z,934.44
2018-10-06T01:04:00.320Z,934.45
2018-10-06T01:05:00.336Z,934.49
2018-10-06T01:06:00.333Z,934.47
2018-10-06T01:07:00.508Z,934.49
2018-10-06T01:08:00.372Z,934.46
2018-10-06T01:09:00.382Z,934.48
2018-10-06T01:10:00.395Z,934.43
2018-10-06T01:11:00.517Z,934.46
2018-10-06T01:12:00.635Z,934.41
2018-10-06T01:13:00.452Z,934.35
2018-10-06T01:14:00.441Z,934.35
2018-10-06T01:15:00.445Z,934.31
2018-10-06T01:16:00.578Z,934.33
2018-10-06T01:17:00.625Z,934.29
2018-10-06T01:18:00.481Z,934.20
2018-10-06T01:19:00.493Z,934.16
2018-10-06T01:20:00.499Z,934.21
2018-10-06T01:21:00.509Z,934.18
2018-10-06T01:22:00.634Z,934.15
2018-10-06T01:23:00.532Z,934.21
2018-10-06T01:24:00.538Z,934.21
2018-10-06T01:25:00.680Z,934.23
2018-10-06T01:26:00.559Z,934.12
2018-10-06T01:27:00.731Z,934.16
2018-10-06T01:28:00.715Z,934.18
2018-10-06T01:29:00.653Z,934.18
2018-10-06T01:30:00.629Z,934.16
2018-10-06T01:31:00.640Z,934.11
2018-10-06T01:32:00.739Z,934.18
2018-10-06T01:33:00.664Z,934.15
2018-10-06T01:34:00.664Z,934.07
2018-10-06T01:35:00.679Z,934.15
2018-10-06T01:36:00.689Z,934.12
2018-10-06T01:37:00.860Z,934.12
2018-10-06T01:38:00.835Z,934.08
2018-10-06T01:39:00.738Z,934.13
2018-10-06T01:40:00.774Z,934.15
2018-10-06T01:41:00.748Z,934.14
2018-10-06T01:42:00.850Z,934.16
2018-10-06T01:43:00.771Z,934.11
2018-10-06T01:44:00.797Z,934.08
2018-10-06T01:45:00.805Z,934.12
2018-10-06T01:46:00.796Z,934.13
2018-10-06T01:47:00.978Z,934.11
2018-10-06T01:48:00.834Z,934.11
2018-10-06T01:49:00.850Z,934.12
2018-10-06T01:50:00.938Z,934.09
2018-10-06T01:51:00.915Z,934.10
2018-10-06T01:52:00.925Z,934.06
2018-10-06T01:53:00.878Z,934.10
2018-10-06T01:54:00.896Z,934.12
2018-10-06T01:55:00.903Z,934.04
2018-10-06T01:56:00.983Z,934.08
2018-10-06T01:57:00.929Z,934.17
2018-10-06T01:58:00.934Z,934.13
2018-10-06T01:59:00.969Z,934.14
2018-10-06T02:00:00.974Z,934.19
2018-10-06T02:01:01.090Z,934.11
2018-10-06T02:02:00.985Z,934.12
2018-10-06T02:03:01.009Z,934.13
2018-10-06T02:04:01.139Z,934.16
2018-10-06T02:05:01.024Z,934.11
2018-10-06T02:06:01.193Z,934.08
2018-10-06T02:07:01.055Z,934.10
2018-10-06T02:08:01.067Z,934.03
2018-10-06T02:09:01.067Z,934.07
2018-10-06T02:10:01.085Z,934.08
2018-10-06T02:11:01.146Z,934.07
2018-10-06T02:12:01.114Z,934.03
2018-10-06T02:13:01.128Z,934.08
2018-10-06T02:14:01.139Z,934.10
2018-10-06T02:15:01.145Z,934.07
2018-10-06T02:16:01.308Z,934.07
2018-10-06T02:17:01.182Z,934.06
2018-10-06T02:18:01.186Z,934.08
2018-10-06T02:19:01.186Z,934.08
2018-10-06T02:20:01.214Z,934.02
2018-10-06T02:21:01.368Z,934.04
2018-10-06T02:22:01.235Z,934.08
2018-10-06T02:23:01.229Z,934.12
2018-10-06T02:24:01.242Z,934.07
2018-10-06T02:25:01.263Z,934.02
2018-10-06T02:26:01.396Z,934.05
2018-10-06T02:27:01.288Z,934.03
2018-10-06T02:28:01.317Z,934.01
2018-10-06T02:29:01.321Z,934.02
2018-10-06T02:30:01.389Z,934.05
2018-10-06T02:31:01.395Z,934.04
2018-10-06T02:32:01.356Z,934.01
2018-10-06T02:33:01.353Z,933.93
2018-10-06T02:34:01.374Z,933.97
2018-10-06T02:35:01.408Z,933.96
2018-10-06T02:36:01.552Z,933.94
2018-10-06T02:37:01.523Z,934.01
2018-10-06T02:38:01.429Z,934.00
2018-10-06T02:39:01.548Z,933.99
2018-10-06T02:40:01.439Z,933.98
2018-10-06T02:41:01.580Z,934.01
2018-10-06T02:42:01.472Z,933.98
2018-10-06T02:43:01.472Z,933.98
2018-10-06T02:44:01.480Z,933.96
2018-10-06T02:45:01.547Z,934.00
2018-10-06T02:46:01.553Z,933.95
2018-10-06T02:47:01.528Z,933.96
2018-10-06T02:48:01.587Z,933.88
2018-10-06T02:49:01.558Z,933.93
2018-10-06T02:50:01.664Z,933.88
2018-10-06T02:51:01.565Z,933.89
2018-10-06T02:52:01.702Z,933.92
2018-10-06T02:53:01.594Z,933.85
2018-10-06T02:54:01.606Z,933.87
2018-10-06T02:55:01.713Z,933.88
2018-10-06T02:56:01.748Z,933.86
2018-10-06T02:57:01.761Z,933.87
2018-10-06T02:58:01.772Z,933.87
2018-10-06T02:59:01.658Z,933.80
2018-10-06T03:00:01.727Z,933.81
2018-10-06T03:01:01.709Z,933.76
2018-10-06T03:02:01.690Z,933.72
2018-10-06T03:03:01.701Z,933.67
2018-10-06T03:04:01.729Z,933.72
2018-10-06T03:05:01.892Z,933.74
2018-10-06T03:06:01.746Z,933.73
2018-10-06T03:07:01.759Z,933.70
2018-10-06T03:08:01.787Z,933.67
2018-10-06T03:09:01.789Z,933.68
2018-10-06T03:10:02.015Z,933.67
2018-10-06T03:11:01.816Z,933.71
2018-10-06T03:12:01.818Z,933.56
2018-10-06T03:13:01.880Z,933.62
2018-10-06T03:14:01.857Z,933.74
2018-10-06T03:15:01.953Z,933.68
2018-10-06T03:16:01.984Z,933.69
2018-10-06T03:17:01.874Z,933.72
2018-10-06T03:18:01.883Z,933.73
2018-10-06T03:19:01.890Z,933.67
2018-10-06T03:20:01.931Z,933.69
2018-10-06T03:21:01.971Z,933.67
2018-10-06T03:22:01.948Z,933.63
2018-10-06T03:23:01.932Z,933.64
2018-10-06T03:24:02.010Z,933.68
2018-10-06T03:25:01.983Z,933.64
2018-10-06T03:26:02.152Z,933.62
2018-10-06T03:27:01.986Z,933.61
2018-10-06T03:28:02.127Z,933.62
2018-10-06T03:29:02.053Z,933.64
2018-10-06T03:30:02.035Z,933.53
2018-10-06T03:31:02.260Z,933.61
2018-10-06T03:32:02.074Z,933.57
2018-10-06T03:33:02.065Z,933.55
2018-10-06T03:34:02.076Z,933.59
2018-10-06T03:35:02.107Z,933.54
2018-10-06T03:36:02.150Z,933.55
2018-10-06T03:37:02.101Z,933.53
2018-10-06T03:38:02.131Z,933.54
2018-10-06T03:39:02.152Z,933.50
2018-10-06T03:40:02.140Z,933.50
2018-10-06T03:41:02.299Z,933.46
2018-10-06T03:42:02.207Z,933.46
2018-10-06T03:43:02.208Z,933.45
2018-10-06T03:44:02.236Z,933.38
2018-10-06T03:45:02.193Z,933.40
2018-10-06T03:46:02.285Z,933.31
2018-10-06T03:47:02.230Z,933.40
2018-10-06T03:48:02.246Z,933.39
2018-10-06T03:49:02.261Z,933.34
2018-10-06T03:50:02.260Z,933.36
2018-10-06T03:51:02.434Z,933.37
2018-10-06T03:52:02.279Z,933.38
2018-10-06T03:53:02.295Z,933.44
2018-10-06T03:54:02.391Z,933.40
2018-10-06T03:55:02.324Z,933.42
2018-10-06T03:56:02.439Z,933.41
2018-10-06T03:57:02.351Z,933.41
2018-10-06T03:58:02.346Z,933.39
2018-10-06T03:59:02.360Z,933.37
2018-10-06T04:00:02.369Z,933.33
2018-10-06T04:01:02.547Z,933.38
2018-10-06T04:02:02.411Z,933.35
2018-10-06T04:03:02.418Z,933.34
2018-10-06T04:04:02.434Z,933.36
2018-10-06T04:05:02.437Z,933.40
2018-10-06T04:06:02.593Z,933.35
2018-10-06T04:07:02.452Z,933.37
2018-10-06T04:08:02.469Z,933.27
2018-10-06T04:09:02.492Z,933.29
2018-10-06T04:10:02.504Z,933.27
2018-10-06T04:11:02.623Z,933.24
2018-10-06T04:12:02.521Z,933.23
2018-10-06T04:13:02.548Z,933.26
2018-10-06T04:14:02.547Z,933.27
2018-10-06T04:15:02.563Z,933.22
2018-10-06T04:16:02.614Z,933.22
2018-10-06T04:17:02.598Z,933.23
2018-10-06T04:18:02.753Z,933.20
2018-10-06T04:19:02.611Z,933.19
2018-10-06T04:20:02.607Z,933.20
2018-10-06T04:21:02.625Z,933.16
2018-10-06T04:22:02.629Z,933.20
2018-10-06T04:23:02.748Z,933.22
2018-10-06T04:24:02.784Z,933.18
2018-10-06T04:25:02.707Z,933.18
2018-10-06T04:26:02.808Z,933.19
2018-10-06T04:27:02.820Z,933.19
2018-10-06T04:28:02.765Z,933.20
2018-10-06T04:29:02.731Z,933.18
2018-10-06T04:30:02.857Z,933.22
2018-10-06T04:31:02.887Z,933.24
2018-10-06T04:32:02.755Z,933.17
2018-10-06T04:33:02.777Z,933.22
2018-10-06T04:34:02.902Z,933.23
2018-10-06T04:35:02.784Z,933.14
2018-10-06T04:36:02.954Z,933.13
2018-10-06T04:37:02.818Z,933.14
2018-10-06T04:38:02.839Z,933.14
2018-10-06T04:39:02.858Z,933.14
2018-10-06T04:40:02.975Z,933.10
2018-10-06T04:41:03.030Z,933.13
2018-10-06T04:42:02.876Z,933.08
2018-10-06T04:43:02.891Z,933.06
2018-10-06T04:44:02.908Z,933.06
2018-10-06T04:45:02.909Z,933.08
2018-10-06T04:46:02.944Z,933.01
2018-10-06T04:47:03.096Z,933.06
2018-10-06T04:48:02.977Z,933.05
2018-10-06T04:49:02.960Z,933.06
2018-10-06T04:50:02.969Z,933.05
2018-10-06T04:51:02.978Z,933.05
2018-10-06T04:52:03.186Z,933.05
2018-10-06T04:53:03.065Z,933.03
2018-10-06T04:54:03.023Z,933.04
2018-10-06T04:55:03.040Z,933.05
2018-10-06T04:56:03.049Z,933.07
2018-10-06T04:57:03.098Z,932.94
2018-10-06T04:58:03.207Z,933.00
2018-10-06T04:59:03.200Z,932.93
2018-10-06T05:00:03.094Z,932.96
2018-10-06T05:01:03.224Z,932.92
2018-10-06T05:02:03.110Z,932.90
2018-10-06T05:03:03.182Z,932.90
2018-10-06T05:04:03.257Z,932.90
2018-10-06T05:05:03.159Z,932.89
2018-10-06T05:06:03.238Z,932.89
2018-10-06T05:07:03.170Z,932.87
2018-10-06T05:08:03.175Z,932.89
2018-10-06T05:09:03.186Z,932.84
2018-10-06T05:10:03.210Z,932.85
2018-10-06T05:11:03.379Z,932.87
2018-10-06T05:12:03.245Z,932.82
2018-10-06T05:13:03.231Z,932.79
2018-10-06T05:14:03.285Z,932.80
2018-10-06T05:15:03.266Z,932.82
2018-10-06T05:16:03.429Z,932.72
2018-10-06T05:17:03.293Z,932.74
2018-10-06T05:18:03.327Z,932.78
2018-10-06T05:19:03.313Z,932.72
2018-10-06T05:20:03.336Z,932.74
2018-10-06T05:21:03.609Z,932.74
2018-10-06T05:22:03.345Z,932.74
2018-10-06T05:23:03.405Z,932.75
2018-10-06T05:24:03.373Z,932.72
2018-10-06T05:25:03.422Z,932.77
2018-10-06T05:26:03.440Z,932.73
2018-10-06T05:27:03.417Z,932.78
2018-10-06T05:28:03.411Z,932.74
2018-10-06T05:29:03.591Z,932.72
2018-10-06T05:30:03.462Z,932.75
2018-10-06T05:31:03.451Z,932.69
2018-10-06T05:32:03.486Z,932.69
2018-10-06T05:33:03.469Z,932.64
2018-10-06T05:34:03.709Z,932.64
2018-10-06T05:35:03.492Z,932.65
2018-10-06T05:36:03.516Z,932.56
2018-10-06T05:37:03.521Z,932.61
2018-10-06T05:38:03.547Z,932.59
2018-10-06T05:39:03.722Z,932.60
2018-10-06T05:40:03.560Z,932.61
2018-10-06T05:41:03.611Z,932.60
2018-10-06T05:42:03.590Z,932.55
2018-10-06T05:43:03.594Z,932.60
2018-10-06T05:44:03.761Z,932.57
2018-10-06T05:45:03.627Z,932.63
2018-10-06T05:46:03.642Z,932.59
2018-10-06T05:47:03.647Z,932.62
2018-10-06T05:48:03.669Z,932.63
2018-10-06T05:49:03.830Z,932.60
2018-10-06T05:50:03.801Z,932.59
2018-10-06T05:51:03.813Z,932.57
2018-10-06T05:52:03.711Z,932.54
2018-10-06T05:53:03.723Z,932.56
2018-10-06T05:54:03.867Z,932.58
2018-10-06T05:55:03.732Z,932.58
2018-10-06T05:56:03.740Z,932.55
2018-10-06T05:57:03.773Z,932.54
2018-10-06T05:58:03.894Z,932.55
2018-10-06T05:59:03.995Z,932.54
2018-10-06T06:00:03.796Z,932.53
2018-10-06T06:01:03.798Z,932.51
2018-10-06T06:02:03.816Z,932.47
2018-10-06T06:03:03.846Z,932.48
2018-10-06T06:04:04.034Z,932.49
2018-10-06T06:05:03.918Z,932.46
2018-10-06T06:06:03.856Z,932.46
2018-10-06T06:07:03.902Z,932.48
2018-10-06T06:08:03.918Z,932.45
2018-10-06T06:09:04.063Z,932.46
2018-10-06T06:10:03.927Z,932.46
2018-10-06T06:11:03.920Z,932.41
2018-10-06T06:12:04.063Z,932.46
2018-10-06T06:13:03.948Z,932.47
2018-10-06T06:14:04.013Z,932.38
2018-10-06T06:15:03.973Z,932.36
2018-10-06T06:16:04.138Z,932.29
2018-10-06T06:17:04.011Z,932.28
2018-10-06T06:18:04.129Z,932.22
2018-10-06T06:19:04.038Z,932.26
2018-10-06T06:20:04.041Z,932.28
2018-10-06T06:21:04.193Z,932.26
2018-10-06T06:22:04.043Z,932.28
2018-10-06T06:23:04.069Z,932.27
2018-10-06T06:24:04.261Z,932.23
2018-10-06T06:25:04.094Z,932.26
2018-10-06T06:26:04.247Z,932.24
2018-10-06T06:27:04.117Z,932.21
2018-10-06T06:28:04.138Z,932.18
2018-10-06T06:29:04.187Z,932.18
2018-10-06T06:30:04.272Z,932.15
2018-10-06T06:31:04.325Z,932.14
2018-10-06T06:32:04.361Z,932.12
2018-10-06T06:33:04.207Z,932.10
2018-10-06T06:34:04.196Z,932.12
2018-10-06T06:35:04.212Z,932.18
2018-10-06T06:36:04.373Z,932.17
2018-10-06T06:37:04.235Z,932.16
2018-10-06T06:38:04.248Z,932.20
2018-10-06T06:39:04.254Z,932.16
2018-10-06T06:40:04.257Z,932.18
2018-10-06T06:41:04.437Z,932.18
2018-10-06T06:42:04.293Z,932.14
2018-10-06T06:43:04.425Z,932.14
2018-10-06T06:44:04.347Z,932.14
2018-10-06T06:45:04.345Z,932.16
2018-10-06T06:46:04.486Z,932.17
2018-10-06T06:47:04.355Z,932.17
2018-10-06T06:48:04.373Z,932.17
2018-10-06T06:49:04.375Z,932.13
2018-10-06T06:50:04.399Z,932.15
2018-10-06T06:51:04.547Z,932.17
2018-10-06T06:52:04.408Z,932.17
2018-10-06T06:53:04.421Z,932.16
2018-10-06T06:54:04.436Z,932.12
2018-10-06T06:55:04.499Z,932.13
2018-10-06T06:56:04.612Z,932.10
2018-10-06T06:57:04.478Z,932.10
2018-10-06T06:58:04.497Z,932.08
2018-10-06T06:59:04.501Z,932.10
2018-10-06T07:00:04.497Z,932.10
2018-10-06T07:01:04.563Z,932.07
2018-10-06T07:02:04.803Z,932.15
2018-10-06T07:03:04.544Z,932.11
2018-10-06T07:04:04.543Z,932.14
2018-10-06T07:05:04.564Z,932.11
2018-10-06T07:06:04.581Z,932.15
2018-10-06T07:07:04.857Z,932.08
2018-10-06T07:08:04.610Z,932.13
2018-10-06T07:09:04.607Z,932.18
2018-10-06T07:10:04.637Z,932.14
2018-10-06T07:11:04.755Z,932.17
2018-10-06T07:12:04.808Z,932.16
2018-10-06T07:13:04.653Z,932.13
2018-10-06T07:14:04.674Z,932.15
2018-10-06T07:15:04.688Z,932.11
2018-10-06T07:16:04.692Z,932.13
2018-10-06T07:17:04.865Z,932.17
2018-10-06T07:18:04.843Z,932.21
2018-10-06T07:19:04.855Z,932.21
2018-10-06T07:20:04.753Z,932.21
2018-10-06T07:21:04.875Z,932.19
2018-10-06T07:22:04.906Z,932.22
2018-10-06T07:23:04.767Z,932.25
2018-10-06T07:24:04.788Z,932.26
2018-10-06T07:25:04.788Z,932.28
2018-10-06T07:26:04.808Z,932.25
2018-10-06T07:27:04.973Z,932.26
2018-10-06T07:28:04.847Z,932.24
2018-10-06T07:29:04.848Z,932.25
2018-10-06T07:30:04.861Z,932.27
2018-10-06T07:31:04.885Z,932.24
2018-10-06T07:32:05.180Z,932.22
2018-10-06T07:33:04.907Z,932.26
2018-10-06T07:34:05.033Z,932.27
2018-10-06T07:35:04.956Z,932.24
2018-10-06T07:36:04.928Z,932.14
2018-10-06T07:37:05.090Z,932.24
2018-10-06T07:38:04.980Z,932.19
2018-10-06T07:39:05.090Z,932.17
2018-10-06T07:40:04.965Z,932.19
2018-10-06T07:41:04.992Z,932.22
2018-10-06T07:42:05.051Z,932.21
2018-10-06T07:43:05.016Z,932.21
2018-10-06T07:44:05.022Z,932.21
2018-10-06T07:45:05.198Z,932.24
2018-10-06T07:46:05.047Z,932.26
2018-10-06T07:47:05.059Z,932.28
2018-10-06T07:48:05.081Z,932.27
2018-10-06T07:49:05.134Z,932.28
2018-10-06T07:50:05.087Z,932.27
2018-10-06T07:51:05.267Z,932.30
2018-10-06T07:52:05.122Z,932.28
2018-10-06T07:53:05.201Z,932.25
2018-10-06T07:54:05.144Z,932.30
2018-10-06T07:55:05.159Z,932.28
2018-10-06T07:56:05.440Z,932.30
2018-10-06T07:57:05.179Z,932.28
2018-10-06T07:58:05.190Z,932.32
2018-10-06T07:59:05.198Z,932.33
2018-10-06T08:00:05.338Z,932.34
2018-10-06T08:01:05.501Z,932.37
2018-10-06T08:02:05.238Z,932.33
2018-10-06T08:03:05.252Z,932.34
2018-10-06T08:04:05.254Z,932.35
2018-10-06T08:05:05.278Z,932.34
2018-10-06T08:06:05.386Z,932.33
2018-10-06T08:07:05.301Z,932.33
2018-10-06T08:08:05.324Z,932.36
2018-10-06T08:09:05.312Z,932.33
2018-10-06T08:10:05.386Z,932.33
2018-10-06T08:11:05.507Z,932.36
2018-10-06T08:12:05.480Z,932.35
2018-10-06T08:13:05.381Z,932.38
2018-10-06T08:14:05.371Z,932.39
2018-10-06T08:15:05.394Z,932.41
2018-10-06T08:16:05.547Z,932.40
2018-10-06T08:17:05.424Z,932.43
2018-10-06T08:18:05.550Z,932.41
2018-10-06T08:19:05.472Z,932.40
2018-10-06T08:20:05.452Z,932.38
2018-10-06T08:21:05.615Z,932.37
2018-10-06T08:22:05.511Z,932.34
2018-10-06T08:23:05.507Z,932.36
2018-10-06T08:24:05.622Z,932.36
2018-10-06T08:25:05.509Z,932.36
2018-10-06T08:26:05.684Z,932.36
2018-10-06T08:27:05.548Z,932.32
2018-10-06T08:28:05.541Z,932.32
2018-10-06T08:29:05.681Z,932.35
2018-10-06T08:30:05.564Z,932.36
2018-10-06T08:31:05.733Z,932.33
2018-10-06T08:32:05.594Z,932.32
2018-10-06T08:33:05.620Z,932.31
2018-10-06T08:34:05.747Z,932.28
2018-10-06T08:35:05.686Z,932.32
2018-10-06T08:36:05.917Z,932.29
2018-10-06T08:37:05.659Z,932.34
2018-10-06T08:38:05.677Z,932.33
2018-10-06T08:39:05.691Z,932.34
2018-10-06T08:40:05.687Z,932.36
2018-10-06T08:41:05.864Z,932.36
2018-10-06T08:42:05.718Z,932.39
2018-10-06T08:43:05.745Z,932.42
2018-10-06T08:44:05.743Z,932.42
2018-10-06T08:45:05.756Z,932.41
2018-10-06T08:46:05.812Z,932.44
2018-10-06T08:47:05.782Z,932.50
2018-10-06T08:48:05.937Z,932.50
2018-10-06T08:49:05.798Z,932.52
2018-10-06T08:50:05.808Z,932.56
2018-10-06T08:51:05.878Z,932.57
2018-10-06T08:52:05.837Z,932.60
2018-10-06T08:53:06.017Z,932.58
2018-10-06T08:54:05.877Z,932.58
2018-10-06T08:55:05.874Z,932.58
2018-10-06T08:56:06.033Z,932.60
2018-10-06T08:57:05.913Z,932.62
2018-10-06T08:58:06.075Z,932.58
2018-10-06T08:59:05.925Z,932.59
2018-10-06T09:00:05.962Z,932.64
2018-10-06T09:01:05.943Z,932.58
2018-10-06T09:02:05.976Z,932.62
2018-10-06T09:03:06.137Z,932.65
2018-10-06T09:04:05.985Z,932.62
2018-10-06T09:05:06.001Z,932.68
2018-10-06T09:06:06.004Z,932.66
2018-10-06T09:07:06.037Z,932.67
2018-10-06T09:08:06.041Z,932.70
2018-10-06T09:09:06.251Z,932.74
2018-10-06T09:10:06.056Z,932.77
2018-10-06T09:11:06.062Z,932.78
2018-10-06T09:12:06.075Z,932.81
2018-10-06T09:13:06.133Z,932.87
2018-10-06T09:14:06.268Z,932.83
2018-10-06T09:15:06.238Z,932.84
2018-10-06T09:16:06.124Z,932.87
2018-10-06T09:17:06.132Z,932.84
2018-10-06T09:18:06.143Z,932.89
2018-10-06T09:19:06.327Z,932.93
2018-10-06T09:20:06.180Z,932.98
2018-10-06T09:21:06.177Z,932.99
2018-10-06T09:22:06.203Z,933.00
2018-10-06T09:23:06.230Z,933.02
2018-10-06T09:24:06.385Z,933.06
2018-10-06T09:25:06.252Z,933.06
2018-10-06T09:26:06.236Z,933.09
2018-10-06T09:27:06.265Z,933.06
2018-10-06T09:28:06.338Z,933.08
2018-10-06T09:29:06.453Z,933.05
2018-10-06T09:30:06.284Z,933.04
2018-10-06T09:31:06.432Z,933.09
2018-10-06T09:32:06.338Z,933.13
2018-10-06T09:33:06.343Z,933.15
2018-10-06T09:34:06.393Z,933.12
2018-10-06T09:35:06.480Z,933.09
2018-10-06T09:36:06.375Z,933.10
2018-10-06T09:37:06.461Z,933.18
2018-10-06T09:38:06.543Z,933.24
2018-10-06T09:39:06.415Z,933.27
2018-10-06T09:40:06.423Z,933.35
2018-10-06T09:41:06.428Z,933.37
2018-10-06T09:42:06.556Z,933.39
2018-10-06T09:43:06.729Z,933.45
2018-10-06T09:44:06.461Z,933.51
2018-10-06T09:45:06.492Z,933.53
2018-10-06T09:46:06.485Z,933.60
2018-10-06T09:47:06.509Z,933.68
2018-10-06T09:48:06.689Z,933.64
2018-10-06T09:49:06.546Z,933.67
2018-10-06T09:50:06.557Z,933.68
2018-10-06T09:51:06.549Z,933.64
2018-10-06T09:52:06.565Z,933.62
2018-10-06T09:53:06.744Z,933.60
2018-10-06T09:54:06.625Z,933.59
2018-10-06T09:55:06.601Z,933.63
2018-10-06T09:56:06.606Z,933.67
2018-10-06T09:57:06.635Z,933.70
2018-10-06T09:58:06.784Z,933.76
2018-10-06T09:59:06.648Z,933.72
2018-10-06T10:00:06.655Z,933.79
2018-10-06T10:01:06.687Z,933.80
2018-10-06T10:02:06.695Z,933.79
2018-10-06T10:03:06.974Z,933.84
2018-10-06T10:04:06.722Z,933.81
2018-10-06T10:05:06.737Z,933.83
2018-10-06T10:06:06.755Z,933.82
2018-10-06T10:07:06.764Z,933.84
2018-10-06T10:08:06.925Z,933.88
2018-10-06T10:09:06.785Z,933.89
2018-10-06T10:10:06.790Z,933.85
2018-10-06T10:11:06.805Z,933.90
2018-10-06T10:12:06.810Z,933.89
2018-10-06T10:13:06.896Z,933.86
2018-10-06T10:14:06.976Z,933.83
2018-10-06T10:15:06.849Z,933.84
2018-10-06T10:16:06.873Z,933.79
2018-10-06T10:17:06.974Z,933.79
2018-10-06T10:18:07.076Z,933.75
2018-10-06T10:19:07.048Z,933.82
2018-10-06T10:20:06.924Z,933.83
2018-10-06T10:21:06.967Z,933.86
2018-10-06T10:22:07.106Z,933.87
2018-10-06T10:23:07.050Z,933.90
2018-10-06T10:24:07.237Z,933.89
2018-10-06T10:25:06.964Z,933.86
2018-10-06T10:26:07.013Z,933.86
2018-10-06T10:27:07.011Z,933.88
2018-10-06T10:28:07.136Z,933.89
2018-10-06T10:29:07.188Z,933.92
2018-10-06T10:30:07.038Z,933.98
2018-10-06T10:31:07.041Z,934.00
2018-10-06T10:32:07.064Z,933.99
2018-10-06T10:33:07.067Z,933.96
2018-10-06T10:34:07.138Z,933.97
2018-10-06T10:35:07.109Z,933.99
2018-10-06T10:36:07.169Z,934.00
2018-10-06T10:37:07.281Z,934.05
2018-10-06T10:38:07.151Z,934.09
2018-10-06T10:39:07.235Z,934.12
2018-10-06T10:40:07.297Z,934.08
2018-10-06T10:41:07.174Z,934.07
2018-10-06T10:42:07.296Z,934.12
2018-10-06T10:43:07.218Z,934.15
2018-10-06T10:44:07.403Z,934.13
2018-10-06T10:45:07.249Z,934.15
2018-10-06T10:46:07.276Z,934.10
2018-10-06T10:47:07.465Z,934.07
2018-10-06T10:48:07.306Z,934.02
2018-10-06T10:49:07.297Z,934.02
2018-10-06T10:50:07.294Z,934.00
2018-10-06T10:51:07.318Z,933.97
2018-10-06T10:52:07.476Z,933.96
2018-10-06T10:53:07.336Z,933.93
2018-10-06T10:54:07.371Z,933.93
2018-10-06T10:55:07.365Z,933.93
2018-10-06T10:56:07.372Z,933.98
2018-10-06T10:57:07.542Z,934.05
2018-10-06T10:58:07.403Z,934.12
2018-10-06T10:59:07.421Z,934.15
2018-10-06T11:00:07.594Z,934.16
2018-10-06T11:01:07.456Z,934.18
2018-10-06T11:02:07.657Z,934.19
2018-10-06T11:03:07.599Z,934.18
2018-10-06T11:04:07.483Z,934.19
2018-10-06T11:05:07.500Z,934.18
2018-10-06T11:06:07.532Z,934.24
2018-10-06T11:07:07.672Z,934.21
2018-10-06T11:08:07.538Z,934.22
2018-10-06T11:09:07.562Z,934.22
2018-10-06T11:10:07.577Z,934.21
2018-10-06T11:11:07.711Z,934.20
2018-10-06T11:12:07.875Z,934.23
2018-10-06T11:13:07.615Z,934.19
2018-10-06T11:14:07.637Z,934.16
2018-10-06T11:15:07.636Z,934.15
2018-10-06T11:16:07.652Z,934.15
2018-10-06T11:17:07.709Z,934.13
2018-10-06T11:18:07.680Z,934.12
2018-10-06T11:19:07.708Z,934.15
2018-10-06T11:20:07.704Z,934.15
2018-10-06T11:21:07.913Z,934.19
2018-10-06T11:22:07.748Z,934.21
2018-10-06T11:23:07.877Z,934.26
2018-10-06T11:24:07.757Z,934.29
2018-10-06T11:25:07.782Z,934.29
2018-10-06T11:26:07.940Z,934.29
2018-10-06T11:27:07.929Z,934.31
2018-10-06T11:28:07.826Z,934.26
2018-10-06T11:29:07.828Z,934.26
2018-10-06T11:30:07.854Z,934.26
2018-10-06T11:31:08.012Z,934.24
2018-10-06T11:32:08.003Z,934.24
2018-10-06T11:33:07.896Z,934.22
2018-10-06T11:34:07.909Z,934.23
2018-10-06T11:35:08.046Z,934.23
2018-10-06T11:36:08.091Z,934.22
2018-10-06T11:37:08.032Z,934.21
2018-10-06T11:38:08.081Z,934.16
2018-10-06T11:39:07.981Z,934.18
2018-10-06T11:40:07.991Z,934.15
2018-10-06T11:41:08.172Z,934.15
2018-10-06T11:42:08.015Z,934.15
2018-10-06T11:43:08.039Z,934.15
2018-10-06T11:44:08.067Z,934.15
2018-10-06T11:45:08.060Z,934.16
2018-10-06T11:46:08.227Z,934.18
2018-10-06T11:47:08.216Z,934.16
2018-10-06T11:48:08.098Z,934.16
2018-10-06T11:49:08.248Z,934.13
2018-10-06T11:50:08.184Z,934.18
2018-10-06T11:51:08.260Z,934.09
2018-10-06T11:52:08.171Z,934.10
2018-10-06T11:53:08.183Z,934.11
2018-10-06T11:54:08.316Z,934.12
2018-10-06T11:55:08.216Z,934.11
2018-10-06T11:56:08.274Z,934.13
2018-10-06T11:57:08.248Z,934.15
2018-10-06T11:58:08.261Z,934.18
2018-10-06T11:59:08.268Z,934.20
2018-10-06T12:00:08.475Z,934.19
2018-10-06T12:01:08.443Z,934.24
2018-10-06T12:02:08.319Z,934.21
2018-10-06T12:03:08.364Z,934.17
2018-10-06T12:04:08.362Z,934.20
2018-10-06T12:05:08.378Z,934.22
2018-10-06T12:06:08.443Z,934.21
2018-10-06T12:07:08.408Z,934.19
2018-10-06T12:08:08.531Z,934.20
2018-10-06T12:09:08.472Z,934.16
2018-10-06T12:10:08.448Z,934.15
2018-10-06T12:11:08.559Z,934.13
2018-10-06T12:12:08.460Z,934.16
2018-10-06T12:13:08.494Z,934.19
2018-10-06T12:14:08.504Z,934.17
2018-10-06T12:15:08.513Z,934.18
2018-10-06T12:16:08.639Z,934.21
2018-10-06T12:17:08.538Z,934.19
2018-10-06T12:18:08.561Z,934.21
2018-10-06T12:19:08.578Z,934.25
2018-10-06T12:20:08.610Z,934.26
2018-10-06T12:21:08.757Z,934.25
2018-10-06T12:22:08.642Z,934.30
2018-10-06T12:23:08.653Z,934.31
2018-10-06T12:24:08.674Z,934.33
2018-10-06T12:25:08.668Z,934.38
2018-10-06T12:26:08.944Z,934.36
2018-10-06T12:27:08.826Z,934.37
2018-10-06T12:28:08.726Z,934.38
2018-10-06T12:29:08.737Z,934.43